sensor_id;sensor_type;location;lat;lon;timestamp;P1;durP1;ratioP1;P2;durP2;ratioP2
59930;SDS011;45790;51.538;6.736;2023-12-22T00:01:50;7.65;;;2.25;;
59930;SDS011;45790;51.538;6.736;2023-12-22T00:04:16;4.55;;;0.90;;
59930;SDS011;45790;51.538;6.736;2023-12-22T00:06:41;3.55;;;1.08;;
59930;SDS011;45790;51.538;6.736;2023-12-22T00:09:06;8.48;;;1.30;;
59930;SDS011;45790;51.538;6.736;2023-12-22T00:11:31;6.00;;;0.80;;
59930;SDS011;45790;51.538;6.736;2023-12-22T00:13:57;7.60;;;1.20;;
59930;SDS011;45790;51.538;6.736;2023-12-22T00:16:22;4.00;;;1.57;;
59930;SDS011;45790;51.538;6.736;2023-12-22T00:18:47;7.23;;;1.40;;
59930;SDS011;45790;51.538;6.736;2023-12-22T00:21:12;5.82;;;1.25;;
59930;SDS011;45790;51.538;6.736;2023-12-22T00:23:37;6.18;;;1.20;;
59930;SDS011;45790;51.538;6.736;2023-12-22T00:26:03;11.15;;;1.50;;
59930;SDS011;45790;51.538;6.736;2023-12-22T00:28:28;5.93;;;1.00;;
59930;SDS011;45790;51.538;6.736;2023-12-22T00:30:53;9.00;;;1.27;;
59930;SDS011;45790;51.538;6.736;2023-12-22T00:33:19;6.93;;;1.10;;
59930;SDS011;45790;51.538;6.736;2023-12-22T00:35:44;4.88;;;1.00;;
59930;SDS011;45790;51.538;6.736;2023-12-22T00:38:09;7.90;;;1.10;;
59930;SDS011;45790;51.538;6.736;2023-12-22T00:40:35;8.25;;;1.05;;
59930;SDS011;45790;51.538;6.736;2023-12-22T00:43:00;7.60;;;1.55;;
59930;SDS011;45790;51.538;6.736;2023-12-22T00:45:25;10.25;;;1.77;;
59930;SDS011;45790;51.538;6.736;2023-12-22T00:47:51;6.60;;;1.23;;
59930;SDS011;45790;51.538;6.736;2023-12-22T00:50:16;6.50;;;1.25;;
59930;SDS011;45790;51.538;6.736;2023-12-22T00:52:41;8.75;;;1.45;;
59930;SDS011;45790;51.538;6.736;2023-12-22T00:55:06;5.40;;;1.50;;
59930;SDS011;45790;51.538;6.736;2023-12-22T00:57:31;7.28;;;1.20;;
59930;SDS011;45790;51.538;6.736;2023-12-22T00:59:57;8.82;;;1.35;;
59930;SDS011;45790;51.538;6.736;2023-12-22T01:02:22;5.50;;;1.30;;
59930;SDS011;45790;51.538;6.736;2023-12-22T01:04:47;5.45;;;1.23;;
59930;SDS011;45790;51.538;6.736;2023-12-22T01:07:12;7.80;;;1.10;;
59930;SDS011;45790;51.538;6.736;2023-12-22T01:09:39;9.77;;;1.10;;
59930;SDS011;45790;51.538;6.736;2023-12-22T01:12:04;7.53;;;1.42;;
59930;SDS011;45790;51.538;6.736;2023-12-22T01:14:30;7.10;;;1.10;;
59930;SDS011;45790;51.538;6.736;2023-12-22T01:16:55;5.13;;;0.85;;
59930;SDS011;45790;51.538;6.736;2023-12-22T01:19:20;5.10;;;1.08;;
59930;SDS011;45790;51.538;6.736;2023-12-22T01:21:46;4.90;;;1.10;;
59930;SDS011;45790;51.538;6.736;2023-12-22T01:24:11;8.02;;;1.00;;
59930;SDS011;45790;51.538;6.736;2023-12-22T01:26:36;5.35;;;0.88;;
59930;SDS011;45790;51.538;6.736;2023-12-22T01:29:02;1.40;;;0.47;;
59930;SDS011;45790;51.538;6.736;2023-12-22T01:31:27;2.50;;;0.68;;
59930;SDS011;45790;51.538;6.736;2023-12-22T01:33:52;2.57;;;0.80;;
59930;SDS011;45790;51.538;6.736;2023-12-22T01:36:17;2.13;;;0.50;;
59930;SDS011;45790;51.538;6.736;2023-12-22T01:38:42;3.93;;;0.70;;
59930;SDS011;45790;51.538;6.736;2023-12-22T01:41:08;4.80;;;0.80;;
59930;SDS011;45790;51.538;6.736;2023-12-22T01:43:33;2.38;;;0.52;;
59930;SDS011;45790;51.538;6.736;2023-12-22T01:45:59;3.92;;;1.05;;
59930;SDS011;45790;51.538;6.736;2023-12-22T01:48:24;3.63;;;0.90;;
59930;SDS011;45790;51.538;6.736;2023-12-22T01:50:50;5.90;;;1.00;;
59930;SDS011;45790;51.538;6.736;2023-12-22T01:53:17;5.32;;;0.82;;
59930;SDS011;45790;51.538;6.736;2023-12-22T01:55:42;5.72;;;1.00;;
59930;SDS011;45790;51.538;6.736;2023-12-22T01:58:07;5.25;;;0.80;;
59930;SDS011;45790;51.538;6.736;2023-12-22T02:00:33;4.00;;;1.02;;
59930;SDS011;45790;51.538;6.736;2023-12-22T02:02:58;5.97;;;1.00;;
59930;SDS011;45790;51.538;6.736;2023-12-22T02:05:24;4.07;;;0.93;;
59930;SDS011;45790;51.538;6.736;2023-12-22T02:07:49;4.68;;;0.90;;
59930;SDS011;45790;51.538;6.736;2023-12-22T02:10:14;4.68;;;1.13;;
59930;SDS011;45790;51.538;6.736;2023-12-22T02:12:39;2.15;;;0.70;;
59930;SDS011;45790;51.538;6.736;2023-12-22T02:15:04;6.47;;;0.98;;
59930;SDS011;45790;51.538;6.736;2023-12-22T02:17:44;6.30;;;1.00;;
59930;SDS011;45790;51.538;6.736;2023-12-22T02:20:11;3.55;;;1.02;;
59930;SDS011;45790;51.538;6.736;2023-12-22T02:22:37;5.75;;;1.02;;
59930;SDS011;45790;51.538;6.736;2023-12-22T02:25:03;7.37;;;0.90;;
59930;SDS011;45790;51.538;6.736;2023-12-22T02:27:32;6.68;;;1.20;;
59930;SDS011;45790;51.538;6.736;2023-12-22T02:30:02;5.57;;;0.90;;
59930;SDS011;45790;51.538;6.736;2023-12-22T02:32:29;6.90;;;1.25;;
59930;SDS011;45790;51.538;6.736;2023-12-22T02:34:56;5.95;;;1.58;;
59930;SDS011;45790;51.538;6.736;2023-12-22T02:37:21;6.82;;;1.23;;
59930;SDS011;45790;51.538;6.736;2023-12-22T02:39:47;6.35;;;0.85;;
59930;SDS011;45790;51.538;6.736;2023-12-22T02:42:13;4.50;;;0.90;;
59930;SDS011;45790;51.538;6.736;2023-12-22T02:44:38;6.68;;;1.10;;
59930;SDS011;45790;51.538;6.736;2023-12-22T02:47:04;7.13;;;1.33;;
59930;SDS011;45790;51.538;6.736;2023-12-22T02:49:29;5.18;;;0.82;;
59930;SDS011;45790;51.538;6.736;2023-12-22T02:51:54;7.50;;;1.00;;
59930;SDS011;45790;51.538;6.736;2023-12-22T02:54:19;6.63;;;1.00;;
59930;SDS011;45790;51.538;6.736;2023-12-22T02:56:47;9.40;;;1.38;;
59930;SDS011;45790;51.538;6.736;2023-12-22T02:59:12;4.82;;;1.10;;
59930;SDS011;45790;51.538;6.736;2023-12-22T03:01:38;6.80;;;1.30;;
59930;SDS011;45790;51.538;6.736;2023-12-22T03:04:03;10.18;;;1.50;;
59930;SDS011;45790;51.538;6.736;2023-12-22T03:06:28;7.32;;;1.20;;
59930;SDS011;45790;51.538;6.736;2023-12-22T03:08:53;6.80;;;1.23;;
59930;SDS011;45790;51.538;6.736;2023-12-22T03:11:19;6.50;;;1.20;;
59930;SDS011;45790;51.538;6.736;2023-12-22T03:13:44;6.57;;;1.30;;
59930;SDS011;45790;51.538;6.736;2023-12-22T03:16:09;7.60;;;1.25;;
59930;SDS011;45790;51.538;6.736;2023-12-22T03:18:34;8.80;;;1.70;;
59930;SDS011;45790;51.538;6.736;2023-12-22T03:21:00;7.85;;;1.55;;
59930;SDS011;45790;51.538;6.736;2023-12-22T03:23:25;7.78;;;1.60;;
59930;SDS011;45790;51.538;6.736;2023-12-22T03:25:50;3.80;;;1.08;;
59930;SDS011;45790;51.538;6.736;2023-12-22T03:28:15;13.03;;;1.80;;
59930;SDS011;45790;51.538;6.736;2023-12-22T03:30:40;10.13;;;1.88;;
59930;SDS011;45790;51.538;6.736;2023-12-22T03:33:06;7.35;;;1.70;;
59930;SDS011;45790;51.538;6.736;2023-12-22T03:35:31;7.60;;;1.40;;
59930;SDS011;45790;51.538;6.736;2023-12-22T03:37:56;7.57;;;1.48;;
59930;SDS011;45790;51.538;6.736;2023-12-22T03:40:21;10.00;;;1.75;;
59930;SDS011;45790;51.538;6.736;2023-12-22T03:42:47;10.10;;;1.88;;
59930;SDS011;45790;51.538;6.736;2023-12-22T03:45:12;9.60;;;1.77;;
59930;SDS011;45790;51.538;6.736;2023-12-22T03:47:37;8.40;;;1.65;;
59930;SDS011;45790;51.538;6.736;2023-12-22T03:50:02;10.80;;;1.33;;
59930;SDS011;45790;51.538;6.736;2023-12-22T03:52:27;11.05;;;1.70;;
59930;SDS011;45790;51.538;6.736;2023-12-22T03:54:53;10.60;;;1.67;;
59930;SDS011;45790;51.538;6.736;2023-12-22T03:57:18;11.25;;;2.80;;
59930;SDS011;45790;51.538;6.736;2023-12-22T03:59:43;9.93;;;1.77;;
59930;SDS011;45790;51.538;6.736;2023-12-22T04:02:08;7.40;;;1.20;;
59930;SDS011;45790;51.538;6.736;2023-12-22T04:04:37;10.37;;;1.47;;
59930;SDS011;45790;51.538;6.736;2023-12-22T04:07:02;8.20;;;1.73;;
59930;SDS011;45790;51.538;6.736;2023-12-22T04:09:27;13.15;;;2.13;;
59930;SDS011;45790;51.538;6.736;2023-12-22T04:11:52;8.35;;;1.83;;
59930;SDS011;45790;51.538;6.736;2023-12-22T04:14:18;9.88;;;2.20;;
59930;SDS011;45790;51.538;6.736;2023-12-22T04:16:44;8.82;;;1.80;;
59930;SDS011;45790;51.538;6.736;2023-12-22T04:19:10;9.07;;;2.45;;
59930;SDS011;45790;51.538;6.736;2023-12-22T04:21:35;9.10;;;1.37;;
59930;SDS011;45790;51.538;6.736;2023-12-22T04:24:00;6.57;;;1.73;;
59930;SDS011;45790;51.538;6.736;2023-12-22T04:26:26;11.13;;;1.52;;
59930;SDS011;45790;51.538;6.736;2023-12-22T04:28:51;8.45;;;1.55;;
59930;SDS011;45790;51.538;6.736;2023-12-22T04:31:16;11.67;;;2.50;;
59930;SDS011;45790;51.538;6.736;2023-12-22T04:33:41;14.35;;;1.63;;
59930;SDS011;45790;51.538;6.736;2023-12-22T04:36:06;8.13;;;1.70;;
59930;SDS011;45790;51.538;6.736;2023-12-22T04:38:32;9.07;;;1.50;;
59930;SDS011;45790;51.538;6.736;2023-12-22T04:40:57;6.50;;;1.13;;
59930;SDS011;45790;51.538;6.736;2023-12-22T04:43:22;5.68;;;1.20;;
59930;SDS011;45790;51.538;6.736;2023-12-22T04:45:47;4.30;;;1.07;;
59930;SDS011;45790;51.538;6.736;2023-12-22T04:48:12;6.80;;;1.10;;
59930;SDS011;45790;51.538;6.736;2023-12-22T04:50:38;5.07;;;0.85;;
59930;SDS011;45790;51.538;6.736;2023-12-22T04:53:03;4.22;;;1.00;;
59930;SDS011;45790;51.538;6.736;2023-12-22T04:55:28;3.97;;;0.73;;
59930;SDS011;45790;51.538;6.736;2023-12-22T04:57:53;3.58;;;0.70;;
59930;SDS011;45790;51.538;6.736;2023-12-22T05:00:18;4.07;;;0.90;;
59930;SDS011;45790;51.538;6.736;2023-12-22T05:02:44;7.30;;;0.98;;
59930;SDS011;45790;51.538;6.736;2023-12-22T05:05:09;4.65;;;1.10;;
59930;SDS011;45790;51.538;6.736;2023-12-22T05:07:35;3.72;;;1.00;;
59930;SDS011;45790;51.538;6.736;2023-12-22T05:10:00;6.55;;;1.30;;
59930;SDS011;45790;51.538;6.736;2023-12-22T05:12:25;4.50;;;0.85;;
59930;SDS011;45790;51.538;6.736;2023-12-22T05:14:51;6.75;;;1.02;;
59930;SDS011;45790;51.538;6.736;2023-12-22T05:17:16;8.20;;;1.33;;
59930;SDS011;45790;51.538;6.736;2023-12-22T05:19:41;5.35;;;1.13;;
59930;SDS011;45790;51.538;6.736;2023-12-22T05:22:06;5.30;;;1.17;;
59930;SDS011;45790;51.538;6.736;2023-12-22T05:24:31;7.65;;;1.17;;
59930;SDS011;45790;51.538;6.736;2023-12-22T05:26:57;6.25;;;1.30;;
59930;SDS011;45790;51.538;6.736;2023-12-22T05:29:22;9.23;;;1.67;;
59930;SDS011;45790;51.538;6.736;2023-12-22T05:31:47;7.85;;;1.40;;
59930;SDS011;45790;51.538;6.736;2023-12-22T05:34:12;9.75;;;1.73;;
59930;SDS011;45790;51.538;6.736;2023-12-22T05:36:37;6.28;;;1.60;;
59930;SDS011;45790;51.538;6.736;2023-12-22T05:39:03;10.50;;;1.87;;
59930;SDS011;45790;51.538;6.736;2023-12-22T05:41:28;8.75;;;1.20;;
59930;SDS011;45790;51.538;6.736;2023-12-22T05:43:53;8.10;;;1.23;;
59930;SDS011;45790;51.538;6.736;2023-12-22T05:46:18;6.53;;;1.27;;
59930;SDS011;45790;51.538;6.736;2023-12-22T05:48:44;6.65;;;1.50;;
59930;SDS011;45790;51.538;6.736;2023-12-22T05:51:09;5.80;;;1.20;;
59930;SDS011;45790;51.538;6.736;2023-12-22T05:53:38;3.15;;;1.08;;
59930;SDS011;45790;51.538;6.736;2023-12-22T05:56:04;5.03;;;1.10;;
59930;SDS011;45790;51.538;6.736;2023-12-22T05:58:29;7.72;;;1.30;;
59930;SDS011;45790;51.538;6.736;2023-12-22T06:00:54;4.10;;;1.13;;
59930;SDS011;45790;51.538;6.736;2023-12-22T06:03:19;5.40;;;1.23;;
59930;SDS011;45790;51.538;6.736;2023-12-22T06:05:44;8.00;;;1.33;;
59930;SDS011;45790;51.538;6.736;2023-12-22T06:08:10;7.78;;;1.38;;
59930;SDS011;45790;51.538;6.736;2023-12-22T06:10:35;9.15;;;1.58;;
59930;SDS011;45790;51.538;6.736;2023-12-22T06:13:01;4.47;;;1.27;;
59930;SDS011;45790;51.538;6.736;2023-12-22T06:15:28;9.38;;;1.55;;
59930;SDS011;45790;51.538;6.736;2023-12-22T06:17:53;7.45;;;1.38;;
59930;SDS011;45790;51.538;6.736;2023-12-22T06:20:19;7.82;;;1.63;;
59930;SDS011;45790;51.538;6.736;2023-12-22T06:22:44;8.70;;;1.38;;
59930;SDS011;45790;51.538;6.736;2023-12-22T06:25:09;7.47;;;1.93;;
59930;SDS011;45790;51.538;6.736;2023-12-22T06:27:34;8.27;;;1.50;;
59930;SDS011;45790;51.538;6.736;2023-12-22T06:30:00;9.23;;;1.77;;
59930;SDS011;45790;51.538;6.736;2023-12-22T06:32:25;8.57;;;1.25;;
59930;SDS011;45790;51.538;6.736;2023-12-22T06:34:50;9.13;;;1.40;;
59930;SDS011;45790;51.538;6.736;2023-12-22T06:37:15;11.80;;;1.90;;
59930;SDS011;45790;51.538;6.736;2023-12-22T06:39:41;14.00;;;1.67;;
59930;SDS011;45790;51.538;6.736;2023-12-22T06:42:07;7.93;;;1.58;;
59930;SDS011;45790;51.538;6.736;2023-12-22T06:44:36;10.75;;;1.73;;
59930;SDS011;45790;51.538;6.736;2023-12-22T06:47:01;11.73;;;1.83;;
59930;SDS011;45790;51.538;6.736;2023-12-22T06:49:26;7.05;;;1.50;;
59930;SDS011;45790;51.538;6.736;2023-12-22T06:51:52;12.05;;;1.52;;
59930;SDS011;45790;51.538;6.736;2023-12-22T06:54:17;12.15;;;2.30;;
59930;SDS011;45790;51.538;6.736;2023-12-22T06:56:42;12.05;;;1.85;;
59930;SDS011;45790;51.538;6.736;2023-12-22T06:59:08;7.40;;;1.33;;
59930;SDS011;45790;51.538;6.736;2023-12-22T07:01:36;13.10;;;1.92;;
59930;SDS011;45790;51.538;6.736;2023-12-22T07:04:02;10.60;;;1.70;;
59930;SDS011;45790;51.538;6.736;2023-12-22T07:06:31;11.88;;;1.80;;
59930;SDS011;45790;51.538;6.736;2023-12-22T07:11:40;12.23;;;1.92;;
59930;SDS011;45790;51.538;6.736;2023-12-22T07:14:05;12.13;;;1.77;;
59930;SDS011;45790;51.538;6.736;2023-12-22T07:16:32;11.85;;;1.77;;
59930;SDS011;45790;51.538;6.736;2023-12-22T07:18:57;11.32;;;2.17;;
59930;SDS011;45790;51.538;6.736;2023-12-22T07:21:23;9.30;;;1.60;;
59930;SDS011;45790;51.538;6.736;2023-12-22T07:23:49;8.32;;;1.63;;
59930;SDS011;45790;51.538;6.736;2023-12-22T07:26:14;6.80;;;1.40;;
59930;SDS011;45790;51.538;6.736;2023-12-22T07:28:39;8.55;;;2.35;;
59930;SDS011;45790;51.538;6.736;2023-12-22T07:31:05;8.43;;;1.33;;
59930;SDS011;45790;51.538;6.736;2023-12-22T07:33:30;9.65;;;1.48;;
59930;SDS011;45790;51.538;6.736;2023-12-22T07:35:55;10.98;;;2.17;;
59930;SDS011;45790;51.538;6.736;2023-12-22T07:38:21;9.30;;;1.83;;
59930;SDS011;45790;51.538;6.736;2023-12-22T07:40:46;10.80;;;2.20;;
59930;SDS011;45790;51.538;6.736;2023-12-22T07:43:11;10.77;;;1.42;;
59930;SDS011;45790;51.538;6.736;2023-12-22T07:45:36;10.35;;;1.92;;
59930;SDS011;45790;51.538;6.736;2023-12-22T07:48:02;10.98;;;1.88;;
59930;SDS011;45790;51.538;6.736;2023-12-22T07:50:28;10.18;;;2.13;;
59930;SDS011;45790;51.538;6.736;2023-12-22T07:52:53;14.27;;;2.60;;
59930;SDS011;45790;51.538;6.736;2023-12-22T07:55:18;10.27;;;2.03;;
59930;SDS011;45790;51.538;6.736;2023-12-22T07:57:43;14.90;;;2.20;;
59930;SDS011;45790;51.538;6.736;2023-12-22T08:00:10;12.93;;;2.58;;
59930;SDS011;45790;51.538;6.736;2023-12-22T08:02:35;11.43;;;2.22;;
59930;SDS011;45790;51.538;6.736;2023-12-22T08:05:00;15.57;;;2.58;;
59930;SDS011;45790;51.538;6.736;2023-12-22T08:07:25;14.05;;;2.25;;
59930;SDS011;45790;51.538;6.736;2023-12-22T08:09:51;14.70;;;2.70;;
59930;SDS011;45790;51.538;6.736;2023-12-22T08:12:16;15.27;;;3.35;;
59930;SDS011;45790;51.538;6.736;2023-12-22T08:14:41;12.63;;;2.53;;
59930;SDS011;45790;51.538;6.736;2023-12-22T08:17:06;20.38;;;3.17;;
59930;SDS011;45790;51.538;6.736;2023-12-22T08:19:32;19.42;;;3.08;;
59930;SDS011;45790;51.538;6.736;2023-12-22T08:21:57;12.45;;;2.85;;
59930;SDS011;45790;51.538;6.736;2023-12-22T08:24:22;16.17;;;2.92;;
59930;SDS011;45790;51.538;6.736;2023-12-22T08:26:47;14.30;;;2.97;;
59930;SDS011;45790;51.538;6.736;2023-12-22T08:29:13;16.10;;;3.35;;
59930;SDS011;45790;51.538;6.736;2023-12-22T08:31:38;14.25;;;2.85;;
59930;SDS011;45790;51.538;6.736;2023-12-22T08:34:03;15.85;;;2.63;;
59930;SDS011;45790;51.538;6.736;2023-12-22T08:36:30;16.60;;;3.67;;
59930;SDS011;45790;51.538;6.736;2023-12-22T08:38:55;17.70;;;3.63;;
59930;SDS011;45790;51.538;6.736;2023-12-22T08:41:20;15.45;;;3.70;;
59930;SDS011;45790;51.538;6.736;2023-12-22T08:43:46;22.70;;;3.90;;
59930;SDS011;45790;51.538;6.736;2023-12-22T08:46:11;19.38;;;3.72;;
59930;SDS011;45790;51.538;6.736;2023-12-22T08:48:37;25.25;;;4.30;;
59930;SDS011;45790;51.538;6.736;2023-12-22T08:51:03;15.57;;;3.43;;
59930;SDS011;45790;51.538;6.736;2023-12-22T08:53:29;17.58;;;3.13;;
59930;SDS011;45790;51.538;6.736;2023-12-22T08:55:58;13.63;;;2.85;;
59930;SDS011;45790;51.538;6.736;2023-12-22T08:58:23;16.85;;;2.80;;
59930;SDS011;45790;51.538;6.736;2023-12-22T09:00:49;8.10;;;1.80;;
59930;SDS011;45790;51.538;6.736;2023-12-22T09:03:14;8.73;;;2.03;;
59930;SDS011;45790;51.538;6.736;2023-12-22T09:05:39;11.50;;;1.63;;
59930;SDS011;45790;51.538;6.736;2023-12-22T09:08:04;8.02;;;1.45;;
59930;SDS011;45790;51.538;6.736;2023-12-22T09:10:30;8.40;;;1.58;;
59930;SDS011;45790;51.538;6.736;2023-12-22T09:12:56;6.70;;;1.48;;
59930;SDS011;45790;51.538;6.736;2023-12-22T09:15:21;8.00;;;1.38;;
59930;SDS011;45790;51.538;6.736;2023-12-22T09:17:46;7.35;;;1.38;;
59930;SDS011;45790;51.538;6.736;2023-12-22T09:20:11;5.38;;;1.33;;
59930;SDS011;45790;51.538;6.736;2023-12-22T09:22:37;8.00;;;1.50;;
59930;SDS011;45790;51.538;6.736;2023-12-22T09:25:02;6.30;;;1.03;;
59930;SDS011;45790;51.538;6.736;2023-12-22T09:27:28;9.18;;;1.85;;
59930;SDS011;45790;51.538;6.736;2023-12-22T09:29:55;8.23;;;2.42;;
59930;SDS011;45790;51.538;6.736;2023-12-22T09:32:20;13.53;;;2.10;;
59930;SDS011;45790;51.538;6.736;2023-12-22T09:34:45;12.20;;;2.47;;
59930;SDS011;45790;51.538;6.736;2023-12-22T09:37:10;13.60;;;3.07;;
59930;SDS011;45790;51.538;6.736;2023-12-22T09:39:35;14.43;;;2.87;;
59930;SDS011;45790;51.538;6.736;2023-12-22T09:42:01;11.43;;;2.17;;
59930;SDS011;45790;51.538;6.736;2023-12-22T09:44:26;16.58;;;2.97;;
59930;SDS011;45790;51.538;6.736;2023-12-22T09:46:52;14.38;;;3.05;;
59930;SDS011;45790;51.538;6.736;2023-12-22T09:49:18;12.75;;;2.63;;
59930;SDS011;45790;51.538;6.736;2023-12-22T09:51:43;12.93;;;2.92;;
59930;SDS011;45790;51.538;6.736;2023-12-22T09:54:09;13.75;;;2.72;;
59930;SDS011;45790;51.538;6.736;2023-12-22T09:56:34;11.98;;;2.47;;
59930;SDS011;45790;51.538;6.736;2023-12-22T09:59:01;10.60;;;2.28;;
59930;SDS011;45790;51.538;6.736;2023-12-22T10:01:27;11.23;;;2.33;;
59930;SDS011;45790;51.538;6.736;2023-12-22T10:03:52;12.95;;;2.30;;
59930;SDS011;45790;51.538;6.736;2023-12-22T10:06:18;13.25;;;1.70;;
59930;SDS011;45790;51.538;6.736;2023-12-22T10:08:43;13.80;;;3.10;;
59930;SDS011;45790;51.538;6.736;2023-12-22T10:11:09;14.50;;;2.78;;
59930;SDS011;45790;51.538;6.736;2023-12-22T10:13:36;10.65;;;2.70;;
59930;SDS011;45790;51.538;6.736;2023-12-22T10:16:01;11.68;;;2.33;;
59930;SDS011;45790;51.538;6.736;2023-12-22T10:18:27;11.93;;;2.55;;
59930;SDS011;45790;51.538;6.736;2023-12-22T10:20:52;12.05;;;2.45;;
59930;SDS011;45790;51.538;6.736;2023-12-22T10:23:17;12.43;;;2.33;;
59930;SDS011;45790;51.538;6.736;2023-12-22T10:25:42;12.70;;;2.30;;
59930;SDS011;45790;51.538;6.736;2023-12-22T10:28:09;12.48;;;2.60;;
59930;SDS011;45790;51.538;6.736;2023-12-22T10:30:35;9.02;;;1.98;;
59930;SDS011;45790;51.538;6.736;2023-12-22T10:33:03;9.68;;;1.90;;
59930;SDS011;45790;51.538;6.736;2023-12-22T10:35:28;8.60;;;1.80;;
59930;SDS011;45790;51.538;6.736;2023-12-22T10:37:54;5.38;;;1.70;;
59930;SDS011;45790;51.538;6.736;2023-12-22T10:40:21;8.25;;;1.65;;
59930;SDS011;45790;51.538;6.736;2023-12-22T10:42:46;8.02;;;1.70;;
59930;SDS011;45790;51.538;6.736;2023-12-22T10:45:13;2.92;;;0.63;;
59930;SDS011;45790;51.538;6.736;2023-12-22T10:47:38;2.00;;;0.70;;
59930;SDS011;45790;51.538;6.736;2023-12-22T10:50:05;4.07;;;0.60;;
59930;SDS011;45790;51.538;6.736;2023-12-22T10:52:30;3.13;;;0.77;;
59930;SDS011;45790;51.538;6.736;2023-12-22T10:54:58;3.15;;;0.65;;
59930;SDS011;45790;51.538;6.736;2023-12-22T10:57:24;3.30;;;0.90;;
59930;SDS011;45790;51.538;6.736;2023-12-22T10:59:49;2.15;;;0.70;;
59930;SDS011;45790;51.538;6.736;2023-12-22T11:02:16;2.25;;;0.63;;
59930;SDS011;45790;51.538;6.736;2023-12-22T11:04:44;2.95;;;1.10;;
59930;SDS011;45790;51.538;6.736;2023-12-22T11:07:12;1.40;;;0.50;;
59930;SDS011;45790;51.538;6.736;2023-12-22T11:09:38;0.73;;;0.40;;
59930;SDS011;45790;51.538;6.736;2023-12-22T11:12:07;2.67;;;0.60;;
59930;SDS011;45790;51.538;6.736;2023-12-22T11:14:33;3.22;;;0.57;;
59930;SDS011;45790;51.538;6.736;2023-12-22T11:16:59;1.85;;;0.70;;
59930;SDS011;45790;51.538;6.736;2023-12-22T11:19:25;2.85;;;0.70;;
59930;SDS011;45790;51.538;6.736;2023-12-22T11:21:51;4.18;;;1.08;;
59930;SDS011;45790;51.538;6.736;2023-12-22T11:24:17;4.03;;;0.80;;
59930;SDS011;45790;51.538;6.736;2023-12-22T11:26:43;4.28;;;1.08;;
59930;SDS011;45790;51.538;6.736;2023-12-22T11:29:10;5.30;;;1.10;;
59930;SDS011;45790;51.538;6.736;2023-12-22T11:31:36;1.83;;;0.75;;
59930;SDS011;45790;51.538;6.736;2023-12-22T11:34:02;2.72;;;0.90;;
59930;SDS011;45790;51.538;6.736;2023-12-22T11:36:29;4.70;;;1.23;;
59930;SDS011;45790;51.538;6.736;2023-12-22T11:38:56;5.63;;;1.20;;
59930;SDS011;45790;51.538;6.736;2023-12-22T11:41:22;5.60;;;1.40;;
59930;SDS011;45790;51.538;6.736;2023-12-22T11:43:49;4.55;;;1.13;;
59930;SDS011;45790;51.538;6.736;2023-12-22T11:46:16;4.63;;;1.00;;
59930;SDS011;45790;51.538;6.736;2023-12-22T11:48:48;4.13;;;1.10;;
59930;SDS011;45790;51.538;6.736;2023-12-22T11:51:14;2.30;;;0.80;;
59930;SDS011;45790;51.538;6.736;2023-12-22T11:53:39;4.53;;;0.90;;
59930;SDS011;45790;51.538;6.736;2023-12-22T11:56:05;5.38;;;1.13;;
59930;SDS011;45790;51.538;6.736;2023-12-22T12:00:59;3.73;;;1.00;;
59930;SDS011;45790;51.538;6.736;2023-12-22T12:03:25;4.07;;;0.90;;
59930;SDS011;45790;51.538;6.736;2023-12-22T12:06:09;3.83;;;1.17;;
59930;SDS011;45790;51.538;6.736;2023-12-22T12:08:34;5.57;;;1.10;;
59930;SDS011;45790;51.538;6.736;2023-12-22T12:11:00;2.40;;;0.80;;
59930;SDS011;45790;51.538;6.736;2023-12-22T12:13:28;6.82;;;1.02;;
59930;SDS011;45790;51.538;6.736;2023-12-22T12:15:54;2.75;;;0.75;;
59930;SDS011;45790;51.538;6.736;2023-12-22T12:18:23;4.20;;;0.90;;
59930;SDS011;45790;51.538;6.736;2023-12-22T12:20:51;8.38;;;1.30;;
59930;SDS011;45790;51.538;6.736;2023-12-22T12:23:16;4.15;;;1.02;;
59930;SDS011;45790;51.538;6.736;2023-12-22T12:25:42;3.65;;;1.00;;
59930;SDS011;45790;51.538;6.736;2023-12-22T12:28:08;3.97;;;1.20;;
59930;SDS011;45790;51.538;6.736;2023-12-22T12:30:34;3.30;;;1.10;;
59930;SDS011;45790;51.538;6.736;2023-12-22T12:33:09;3.97;;;1.30;;
59930;SDS011;45790;51.538;6.736;2023-12-22T12:35:35;3.95;;;1.00;;
59930;SDS011;45790;51.538;6.736;2023-12-22T12:38:00;3.65;;;0.73;;
59930;SDS011;45790;51.538;6.736;2023-12-22T12:40:27;2.65;;;1.00;;
59930;SDS011;45790;51.538;6.736;2023-12-22T12:42:54;4.97;;;0.88;;
59930;SDS011;45790;51.538;6.736;2023-12-22T12:45:22;3.28;;;0.90;;
59930;SDS011;45790;51.538;6.736;2023-12-22T12:48:01;3.72;;;1.10;;
59930;SDS011;45790;51.538;6.736;2023-12-22T12:50:26;5.00;;;1.08;;
59930;SDS011;45790;51.538;6.736;2023-12-22T12:52:53;4.07;;;0.93;;
59930;SDS011;45790;51.538;6.736;2023-12-22T12:55:19;5.97;;;1.10;;
59930;SDS011;45790;51.538;6.736;2023-12-22T12:57:47;6.85;;;1.15;;
59930;SDS011;45790;51.538;6.736;2023-12-22T13:00:13;1.73;;;0.60;;
59930;SDS011;45790;51.538;6.736;2023-12-22T13:02:38;2.70;;;0.68;;
59930;SDS011;45790;51.538;6.736;2023-12-22T13:05:04;4.55;;;1.00;;
59930;SDS011;45790;51.538;6.736;2023-12-22T13:07:29;3.05;;;0.80;;
59930;SDS011;45790;51.538;6.736;2023-12-22T13:09:55;5.20;;;0.80;;
59930;SDS011;45790;51.538;6.736;2023-12-22T13:12:22;3.30;;;1.10;;
59930;SDS011;45790;51.538;6.736;2023-12-22T13:14:47;5.63;;;0.90;;
59930;SDS011;45790;51.538;6.736;2023-12-22T13:17:12;3.17;;;0.98;;
59930;SDS011;45790;51.538;6.736;2023-12-22T13:19:37;3.90;;;0.95;;
59930;SDS011;45790;51.538;6.736;2023-12-22T13:22:03;4.70;;;0.73;;
59930;SDS011;45790;51.538;6.736;2023-12-22T13:24:28;4.55;;;0.80;;
59930;SDS011;45790;51.538;6.736;2023-12-22T13:27:00;2.85;;;0.80;;
59930;SDS011;45790;51.538;6.736;2023-12-22T13:29:26;5.65;;;1.20;;
59930;SDS011;45790;51.538;6.736;2023-12-22T13:31:51;4.15;;;1.27;;
59930;SDS011;45790;51.538;6.736;2023-12-22T13:34:17;6.30;;;0.88;;
59930;SDS011;45790;51.538;6.736;2023-12-22T13:36:42;6.03;;;1.38;;
59930;SDS011;45790;51.538;6.736;2023-12-22T13:39:07;5.13;;;1.00;;
59930;SDS011;45790;51.538;6.736;2023-12-22T13:41:39;3.67;;;1.10;;
59930;SDS011;45790;51.538;6.736;2023-12-22T13:44:10;4.72;;;1.10;;
59930;SDS011;45790;51.538;6.736;2023-12-22T13:46:36;4.03;;;1.00;;
59930;SDS011;45790;51.538;6.736;2023-12-22T13:49:02;3.58;;;0.80;;
59930;SDS011;45790;51.538;6.736;2023-12-22T13:51:37;3.53;;;0.90;;
59930;SDS011;45790;51.538;6.736;2023-12-22T13:54:03;6.00;;;1.10;;
59930;SDS011;45790;51.538;6.736;2023-12-22T13:56:32;4.80;;;1.08;;
59930;SDS011;45790;51.538;6.736;2023-12-22T13:59:00;5.95;;;1.30;;
59930;SDS011;45790;51.538;6.736;2023-12-22T14:01:25;5.07;;;1.00;;
59930;SDS011;45790;51.538;6.736;2023-12-22T14:03:50;4.18;;;1.17;;
59930;SDS011;45790;51.538;6.736;2023-12-22T14:06:15;6.43;;;1.42;;
59930;SDS011;45790;51.538;6.736;2023-12-22T14:08:41;5.53;;;1.30;;
59930;SDS011;45790;51.538;6.736;2023-12-22T14:11:09;5.25;;;1.08;;
59930;SDS011;45790;51.538;6.736;2023-12-22T14:13:34;7.20;;;1.20;;
59930;SDS011;45790;51.538;6.736;2023-12-22T14:16:08;3.58;;;0.80;;
59930;SDS011;45790;51.538;6.736;2023-12-22T14:18:33;7.70;;;0.93;;
59930;SDS011;45790;51.538;6.736;2023-12-22T14:20:58;6.13;;;1.27;;
59930;SDS011;45790;51.538;6.736;2023-12-22T14:23:24;7.10;;;1.30;;
59930;SDS011;45790;51.538;6.736;2023-12-22T14:25:49;7.18;;;1.10;;
59930;SDS011;45790;51.538;6.736;2023-12-22T14:28:14;11.52;;;2.03;;
59930;SDS011;45790;51.538;6.736;2023-12-22T14:30:40;6.53;;;1.00;;
59930;SDS011;45790;51.538;6.736;2023-12-22T14:33:05;6.03;;;1.00;;
59930;SDS011;45790;51.538;6.736;2023-12-22T14:35:30;4.55;;;1.30;;
59930;SDS011;45790;51.538;6.736;2023-12-22T14:37:55;5.53;;;1.20;;
59930;SDS011;45790;51.538;6.736;2023-12-22T14:40:20;3.70;;;1.00;;
59930;SDS011;45790;51.538;6.736;2023-12-22T14:42:46;3.57;;;0.93;;